createdAt,value
2023-04-16T00:00:00.056Z,0
2023-04-16T00:05:00.328Z,0
2023-04-16T00:09:59.787Z,0
2023-04-16T00:14:59.568Z,0
2023-04-16T00:19:59.615Z,0
2023-04-16T00:24:59.527Z,0
2023-04-16T00:29:59.960Z,0
2023-04-16T00:34:59.655Z,0
2023-04-16T00:39:59.389Z,0
2023-04-16T00:44:59.795Z,0
2023-04-16T00:49:59.659Z,0
2023-04-16T00:54:59.764Z,0
2023-04-16T00:59:59.627Z,0
2023-04-16T01:05:00.154Z,0
2023-04-16T01:09:59.403Z,0
2023-04-16T01:14:59.689Z,0
2023-04-16T01:19:59.764Z,0
2023-04-16T01:24:59.272Z,0
2023-04-16T01:29:59.300Z,0
2023-04-16T01:34:59.450Z,0
2023-04-16T01:39:59.690Z,0
2023-04-16T01:44:59.288Z,0
2023-04-16T01:49:59.245Z,0
2023-04-16T01:54:59.348Z,0
2023-04-16T01:59:59.578Z,0
2023-04-16T02:04:59.720Z,0
2023-04-16T02:09:59.146Z,0
2023-04-16T02:14:59.696Z,0
2023-04-16T02:19:59.170Z,0
2023-04-16T02:24:59.414Z,0
2023-04-16T02:29:59.193Z,0
2023-04-16T02:34:59.151Z,0
2023-04-16T02:39:59.252Z,0
2023-04-16T02:44:59.157Z,0
2023-04-16T02:49:59.341Z,0
2023-04-16T02:54:59.431Z,0
2023-04-16T02:59:59.561Z,0
2023-04-16T03:04:59.290Z,0
2023-04-16T03:09:59.137Z,0
2023-04-16T03:14:59.238Z,0
2023-04-16T03:19:59.614Z,0
2023-04-16T03:24:59.317Z,0
2023-04-16T03:29:59.022Z,0
2023-04-16T03:34:59.416Z,0
2023-04-16T03:39:59.478Z,0
2023-04-16T03:44:59.050Z,0
2023-04-16T03:49:58.993Z,0
2023-04-16T03:54:59.198Z,0
2023-04-16T03:59:59.312Z,0
2023-04-16T04:04:59.240Z,0
2023-04-16T04:09:59.440Z,0
2023-04-16T04:14:59.583Z,0
2023-04-16T04:20:01.320Z,0
2023-04-16T04:24:59.161Z,0
2023-04-16T04:29:59.152Z,0
2023-04-16T04:34:58.855Z,0
2023-04-16T04:39:59.021Z,0
2023-04-16T04:44:59.009Z,0
2023-04-16T04:49:58.874Z,0
2023-04-16T04:54:59.344Z,0
2023-04-16T04:59:59.197Z,0
2023-04-16T05:04:58.962Z,0
2023-04-16T05:09:58.862Z,0
2023-04-16T05:14:59.069Z,0
2023-04-16T05:19:59.025Z,0
2023-04-16T05:24:59.175Z,0
2023-04-16T05:29:59.117Z,0
2023-04-16T05:34:58.969Z,0
2023-04-16T05:39:58.951Z,0
2023-04-16T05:44:59.034Z,0.5
2023-04-16T05:49:58.939Z,0.7
2023-04-16T05:54:58.784Z,0.9
2023-04-16T05:59:59.232Z,1.4
2023-04-16T06:04:58.634Z,1.6
2023-04-16T06:09:58.674Z,1.7
2023-04-16T06:14:59.189Z,2
2023-04-16T06:19:58.987Z,2.2
2023-04-16T06:24:58.740Z,2.8
2023-04-16T06:29:58.936Z,3.1
2023-04-16T06:34:58.760Z,3.1
2023-04-16T06:39:58.737Z,3.5
2023-04-16T06:44:58.739Z,3.9
2023-04-16T06:49:58.683Z,4.1
2023-04-16T06:54:58.653Z,4.6
2023-04-16T06:59:58.609Z,5
2023-04-16T07:04:58.717Z,5.2
2023-04-16T07:09:58.918Z,5.8
2023-04-16T07:14:58.871Z,6.6
2023-04-16T07:19:58.547Z,7.6
2023-04-16T07:24:58.627Z,8.1
2023-04-16T07:29:59.130Z,8.3
2023-04-16T07:34:58.604Z,9.1
2023-04-16T07:39:58.517Z,10.1
2023-04-16T07:44:58.629Z,10.3
2023-04-16T07:49:58.711Z,11.5
2023-04-16T07:54:58.362Z,11.8
2023-04-16T07:59:58.602Z,12.4
2023-04-16T08:04:58.983Z,12.3
2023-04-16T08:09:58.534Z,11.8
2023-04-16T08:14:58.365Z,12.9
2023-04-16T08:19:58.430Z,14.7
2023-04-16T08:24:58.584Z,14.6
2023-04-16T08:29:58.456Z,15.6
2023-04-16T08:34:58.570Z,17.7
2023-04-16T08:39:58.562Z,19.4
2023-04-16T08:45:03.721Z,20.6
2023-04-16T08:49:59.705Z,18.4
2023-04-16T08:55:01.931Z,18.3
2023-04-16T08:59:58.434Z,18.7
2023-04-16T09:04:58.857Z,18.2
2023-04-16T09:09:58.510Z,18.6
2023-04-16T09:14:58.594Z,19.5
2023-04-16T09:19:58.534Z,20.4
2023-04-16T09:24:58.524Z,22.2
2023-04-16T09:29:58.744Z,22.8
2023-04-16T09:34:58.250Z,23
2023-04-16T09:40:00.031Z,23.2
2023-04-16T09:45:00.491Z,23.3
2023-04-16T09:49:58.489Z,23.2
2023-04-16T09:54:58.093Z,21.7
2023-04-16T10:00:00.811Z,21.3
2023-04-16T10:04:58.224Z,23.1
2023-04-16T10:09:58.312Z,25.1
2023-04-16T10:14:58.305Z,26.5
2023-04-16T10:19:58.334Z,27.7
2023-04-16T10:24:58.095Z,27.3
2023-04-16T10:29:58.256Z,26.5
2023-04-16T10:34:58.607Z,26.2
2023-04-16T10:39:58.406Z,26.7
2023-04-16T10:44:58.066Z,27.6
2023-04-16T10:49:58.309Z,28.3
2023-04-16T10:54:58.250Z,28.7
2023-04-16T10:59:58.268Z,29.9
2023-04-16T11:04:58.086Z,30.3
2023-04-16T11:09:58.218Z,29.2
2023-04-16T11:14:57.990Z,27.2
2023-04-16T11:19:58.169Z,27.7
2023-04-16T11:24:57.983Z,26.9
2023-04-16T11:29:59.022Z,27.9
2023-04-16T11:34:57.942Z,29.8
2023-04-16T11:39:58.038Z,30.5
2023-04-16T11:44:58.863Z,29.9
2023-04-16T11:49:58.053Z,30.8
2023-04-16T11:54:58.692Z,31.7
2023-04-16T12:00:02.297Z,37.3
2023-04-16T12:04:57.993Z,41.2
2023-04-16T12:09:57.971Z,50.2
2023-04-16T12:14:59.719Z,62.5
2023-04-16T12:19:59.266Z,60.9
2023-04-16T12:24:57.791Z,59.8
2023-04-16T12:30:05.741Z,60.4
2023-04-16T12:34:57.944Z,75.1
2023-04-16T12:39:57.876Z,80.3
2023-04-16T12:44:58.159Z,71.6
2023-04-16T12:49:57.811Z,69.6
2023-04-16T12:54:58.207Z,59.5
2023-04-16T12:59:58.006Z,47.4
2023-04-16T13:04:57.749Z,41.9
2023-04-16T13:09:57.858Z,45.8
2023-04-16T13:14:57.997Z,47.6
2023-04-16T13:19:57.895Z,48.7
2023-04-16T13:24:57.890Z,66.9
2023-04-16T13:29:57.768Z,72.6
2023-04-16T13:34:57.845Z,65.8
2023-04-16T13:39:58.179Z,58.5
2023-04-16T13:44:57.731Z,61
2023-04-16T13:49:57.786Z,63.3
2023-04-16T13:54:59.595Z,73.9
2023-04-16T13:59:57.756Z,75.1
2023-04-16T14:04:57.830Z,62
2023-04-16T14:09:57.944Z,52.2
2023-04-16T14:14:58.167Z,48.6
2023-04-16T14:19:57.898Z,42.3
2023-04-16T14:24:57.773Z,38.3
2023-04-16T14:29:57.624Z,36.1
2023-04-16T14:34:57.720Z,36.8
2023-04-16T14:39:58.850Z,38.4
2023-04-16T14:44:57.491Z,38.6
2023-04-16T14:49:57.733Z,34.1
2023-04-16T14:54:57.735Z,29.5
2023-04-16T14:59:57.574Z,26.7
2023-04-16T15:04:57.389Z,26.8
2023-04-16T15:09:58.052Z,29.2
2023-04-16T15:14:57.418Z,27.1
2023-04-16T15:19:57.733Z,24.2
2023-04-16T15:24:57.352Z,20.2
2023-04-16T15:29:57.582Z,18.6
2023-04-16T15:34:57.639Z,18.7
2023-04-16T15:39:57.796Z,18.3
2023-04-16T15:44:57.635Z,19.8
2023-04-16T15:49:57.669Z,18.3
2023-04-16T15:54:57.362Z,19.2
2023-04-16T16:00:06.540Z,26
2023-04-16T16:04:57.779Z,26
2023-04-16T16:09:57.482Z,24.9
2023-04-16T16:14:57.308Z,23.3
2023-04-16T16:19:57.457Z,21
2023-04-16T16:24:57.540Z,18.1
2023-04-16T16:29:57.339Z,16.6
2023-04-16T16:34:57.533Z,18.7
2023-04-16T16:39:57.406Z,16.7
2023-04-16T16:44:57.692Z,16.8
2023-04-16T16:49:57.355Z,16
2023-04-16T16:54:57.502Z,13.3
2023-04-16T16:59:57.180Z,12.4
2023-04-16T17:04:57.294Z,11.4
2023-04-16T17:09:57.815Z,9.8
2023-04-16T17:14:57.168Z,7.9
2023-04-16T17:19:57.413Z,6.8
2023-04-16T17:24:57.198Z,5.4
2023-04-16T17:29:57.517Z,4.1
2023-04-16T17:34:58.118Z,3.7
2023-04-16T17:39:57.312Z,3.9
2023-04-16T17:44:57.370Z,3.5
2023-04-16T17:49:57.502Z,3.2
2023-04-16T17:54:57.289Z,3.3
2023-04-16T17:59:57.192Z,3.1
2023-04-16T18:04:57.348Z,2.5
2023-04-16T18:09:57.306Z,1.9
2023-04-16T18:14:57.277Z,1.8
2023-04-16T18:19:57.084Z,1.5
2023-04-16T18:24:56.979Z,1
2023-04-16T18:30:00.500Z,0.4
2023-04-16T18:35:00.410Z,0.1
2023-04-16T18:40:00.619Z,0
2023-04-16T18:45:00.340Z,0
2023-04-16T18:50:00.396Z,0
2023-04-16T18:55:00.161Z,0
2023-04-16T19:00:00.426Z,0
2023-04-16T19:05:00.361Z,0
2023-04-16T19:10:00.660Z,0
2023-04-16T19:15:00.746Z,0
2023-04-16T19:20:00.767Z,0
2023-04-16T19:25:00.594Z,0
2023-04-16T19:30:00.406Z,0
2023-04-16T19:35:00.556Z,0
2023-04-16T19:40:00.378Z,0
2023-04-16T19:45:00.554Z,0
2023-04-16T19:50:00.384Z,0
2023-04-16T19:55:00.340Z,0
2023-04-16T20:00:00.586Z,0
2023-04-16T20:05:00.133Z,0
2023-04-16T20:10:00.266Z,0
2023-04-16T20:15:00.289Z,0
2023-04-16T20:20:00.315Z,0
2023-04-16T20:24:59.957Z,0
2023-04-16T20:30:00.965Z,0
2023-04-16T20:35:00.395Z,0
2023-04-16T20:40:00.316Z,0
2023-04-16T20:44:59.955Z,0
2023-04-16T20:50:00.382Z,0
2023-04-16T20:55:00.058Z,0
2023-04-16T21:00:00.319Z,0
2023-04-16T21:05:00.190Z,0
2023-04-16T21:09:59.924Z,0
2023-04-16T21:15:00.258Z,0
2023-04-16T21:20:00.350Z,0
2023-04-16T21:25:00.111Z,0
2023-04-16T21:29:59.849Z,0
2023-04-16T21:34:59.860Z,0
2023-04-16T21:40:00.211Z,0
2023-04-16T21:45:00.188Z,0
2023-04-16T21:50:00.020Z,0
2023-04-16T21:55:00.300Z,0
2023-04-16T22:00:00.009Z,0
2023-04-16T22:05:00.125Z,0
2023-04-16T22:10:00.314Z,0
2023-04-16T22:15:02.911Z,0
2023-04-16T22:19:59.985Z,0
2023-04-16T22:25:00.165Z,0
2023-04-16T22:30:00.215Z,0
2023-04-16T22:35:00.319Z,0
2023-04-16T22:40:00.335Z,0
2023-04-16T22:45:00.053Z,0
2023-04-16T22:50:00.024Z,0
2023-04-16T22:54:59.666Z,0
2023-04-16T22:59:59.946Z,0
2023-04-16T23:04:59.976Z,0
2023-04-16T23:10:00.057Z,0
2023-04-16T23:14:59.892Z,0
2023-04-16T23:20:00.335Z,0
2023-04-16T23:24:59.551Z,0
2023-04-16T23:29:59.653Z,0
2023-04-16T23:34:59.795Z,0
2023-04-16T23:39:59.899Z,0
2023-04-16T23:44:59.992Z,0
2023-04-16T23:49:59.902Z,0
2023-04-16T23:54:59.812Z,0
2023-04-16T23:59:59.622Z,0
